Parkland Airport

CPL6 · Alberta, Canada

METAR historie CPL6 · Parkland Airport

Hieronder zie je METAR's van de afgelopen dagen. Kies een jaar om door oudere METAR's te bladeren, vanaf het jaar 2007.

3 december 2022

Tijd Code Weer Temp. Zicht Plafond Wind METAR/SPECI
10:50
V
-12 °C 9 mi - 280° 280° 16 - 23 kt SPECI CZVL 031750Z AUTO 28016G23KT 9SM CLR M12/M18 A2993 RMK SLP189
10:50
V
-12 °C 9 mi - 280° 280° 16 - 23 kt METAR CZVL 031750Z AUTO 28016G23KT 9SM CLR M12/M18 A2993 RMK SLP189
10:00
V
-17 °C 9 mi - 240° 240° 5 kt METAR CZVL 031700Z AUTO 24005KT 9SM CLR M17/M21 A2995 RMK SLP210
09:00
V
-21 °C 9 mi - 190° 190° 2 kt METAR CZVL 031600Z AUTO 19002KT 9SM FEW220 M21/M23 A2992 RMK SLP203
08:00
V
-17 °C 9 mi - 260° 260° 3 kt METAR CZVL 031500Z AUTO 26003KT 9SM SCT220 M17/M21 A2992 RMK SLP196
07:00
V
-15 °C 9 mi - 250° 250° 6 kt METAR CZVL 031400Z AUTO 25006KT 9SM FEW110 M15/M20 A2991 RMK SLP192
06:00
V
-17 °C 9 mi 11.000 ft 180° 180° 4 kt METAR CZVL 031300Z AUTO 18004KT 140V250 9SM BKN110 M17/M21 A2993 RMK SLP200
05:00
V
-17 °C 9 mi - 230° 230° 8 kt METAR CZVL 031200Z AUTO 23008KT 9SM CLR M17/M20 A2993 RMK SLP201
04:00
V
-17 °C 9 mi - 230° 230° 13 kt METAR CZVL 031100Z AUTO 23013KT 9SM CLR M17/M21 A2994 RMK SLP202
03:00
V
-20 °C 9 mi - 300° 300° 4 kt METAR CZVL 031000Z AUTO 30004KT 230V020 9SM CLR M20/M23 A2996 RMK SLP212
02:00
V
-19 °C 9 mi - 230° 230° 8 kt METAR CZVL 030900Z AUTO 23008KT 9SM CLR M19/M22 A2996 RMK SLP213
01:00
V
-21 °C 9 mi - 240° 240° 6 kt METAR CZVL 030800Z AUTO 24006KT 9SM CLR M21/M23 A2998 RMK SLP222
00:00
V
-23 °C 9 mi - 200° 200° 7 kt METAR CZVL 030700Z AUTO 20007KT 9SM CLR M23/M25 A2999 RMK SLP227

2 december 2022

Tijd Code Weer Temp. Zicht Plafond Wind METAR/SPECI
23:00
V
-23 °C 9 mi - 210° 210° 5 kt METAR CZVL 030600Z AUTO 21005KT 9SM CLR M23/M25 A3001 RMK SLP236
22:00
V
-22 °C 9 mi - 210° 210° 4 kt METAR CZVL 030500Z AUTO 21004KT 160V240 9SM CLR M22/M25 A3002 RMK SLP240
21:00
V
-21 °C 9 mi - 240° 240° 6 kt METAR CZVL 030400Z AUTO 24006KT 9SM CLR M21/M24 A3003 RMK SLP245
20:00
V
-19 °C 9 mi 21.000 ft 270° 270° 6 kt METAR CZVL 030300Z AUTO 27006KT 9SM BKN210 M19/M22 A3005 RMK SLP249
19:00
V
-19 °C 9 mi - 270° 270° 7 kt METAR CZVL 030200Z AUTO 27007KT 9SM FEW170 M19/M22 A3005 RMK SLP251
18:00
V
-19 °C 9 mi - 280° 280° 7 kt METAR CZVL 030100Z AUTO 28007KT 9SM FEW170 M19/M23 A3007 RMK SLP257
17:00
V
-19 °C 9 mi - 280° 280° 6 kt METAR CZVL 030000Z AUTO 28006KT 9SM CLR M19/M23 A3008 RMK SLP263
16:00
V
-18 °C 9 mi - 280° 280° 10 kt METAR CZVL 022300Z AUTO 28010KT 9SM CLR M18/M23 A3008 RMK SLP259
15:00
V
-18 °C 9 mi - 280° 280° 9 - 16 kt METAR CZVL 022200Z AUTO 28009G16KT 9SM CLR M18/M23 A3007 RMK SLP255
14:00
V
-18 °C 9 mi - 280° 280° 8 kt METAR CZVL 022100Z AUTO 28008KT 9SM CLR M18/M24 A3008 RMK SLP257
13:00
V
-19 °C 9 mi - 280° 280° 9 kt METAR CZVL 022000Z AUTO 28009KT 9SM CLR M19/M24 A3007 RMK SLP257
12:00
V
-21 °C 9 mi - 290° 290° 10 - 15 kt METAR CZVL 021900Z AUTO 29010G15KT 9SM CLR M21/M25 A3007 RMK SLP256
11:00
V
-22 °C 9 mi - 290° 290° 10 kt METAR CZVL 021800Z AUTO 29010KT 9SM CLR M22/M26 A3006 RMK SLP254
10:00
V
-23 °C 9 mi - 290° 290° 8 kt METAR CZVL 021700Z AUTO 29008KT 9SM CLR M23/M27 A3004 RMK SLP248
09:00
V
-24 °C 9 mi - 300° 300° 10 kt METAR CZVL 021600Z AUTO 30010KT 9SM CLR M24/M27 A3003 RMK SLP243
08:00
V
-24 °C 9 mi - 290° 290° 11 kt METAR CZVL 021500Z AUTO 29011KT 9SM CLR M24/M27 A3000 RMK SLP233
07:00
V
-26 °C 9 mi - 310° 310° 6 kt METAR CZVL 021400Z AUTO 31006KT 9SM CLR M26/M29 A2999 RMK SLP233
06:00
V
-26 °C 9 mi - 340° 340° 3 kt METAR CZVL 021300Z AUTO 34003KT 9SM CLR M26/M29 A2997 RMK SLP227
05:00
V
-29 °C 9 mi - 250° 250° 5 kt METAR CZVL 021200Z AUTO 25005KT 9SM CLR M29/M32 A2996 RMK SLP225
04:00
V
-27 °C 9 mi - 230° 230° 2 kt METAR CZVL 021100Z AUTO 23002KT 9SM CLR M27/M29 A2995 RMK SLP219
03:00
V
-26 °C 9 mi - 240° 240° 4 kt METAR CZVL 021000Z AUTO 24004KT 9SM CLR M26/M29 A2994 RMK SLP215
02:26
V
-25 °C 9 mi - 250° 250° 4 kt METAR CZVL 020926Z AUTO 25004KT 9SM SCT014 M25/M28 A2993 RMK SLP213
02:07
M
-26 °C 9 mi 1.400 ft 260° 260° 2 kt METAR CZVL 020907Z AUTO 26002KT 9SM BKN014 M26/M28 A2993 RMK SLP213
01:00
V
-25 °C 9 mi - 270° 270° 4 kt METAR CZVL 020800Z AUTO 27004KT 9SM FEW016 M25/M27 A2991 RMK SLP205
00:00
V
-22 °C 9 mi - 290° 290° 3 kt METAR CZVL 020700Z AUTO 29003KT 9SM SCT017 M22/M25 A2989 RMK SLP195

1 december 2022

Tijd Code Weer Temp. Zicht Plafond Wind METAR/SPECI
23:00
M
-22 °C 9 mi 1.500 ft Var Var 2 kt METAR CZVL 020600Z AUTO VRB02KT 9SM OVC015 M22/M25 A2987 RMK SLP190
22:00
M
-22 °C 9 mi 1.900 ft 310° 310° 4 kt METAR CZVL 020500Z AUTO 31004KT 9SM OVC019 M22/M24 A2986 RMK SLP185
21:00
M
-22 °C 9 mi 1.900 ft 290° 290° 3 kt METAR CZVL 020400Z AUTO 29003KT 9SM OVC019 M22/M24 A2985 RMK SLP180
20:00
M
-22 °C 9 mi 1.700 ft 270° 270° 2 kt METAR CZVL 020300Z AUTO 27002KT 9SM OVC017 M22/M25 A2985 RMK SLP180
19:34
M
-22 °C 9 mi 1.900 ft Var Var 2 kt METAR CZVL 020234Z AUTO VRB02KT 9SM OVC019 M22/M25 A2984 RMK SLP177
19:23
M
-22 °C 9 mi 1.900 ft 260° 260° 3 kt METAR CZVL 020223Z AUTO 26003KT 9SM -SN OVC019 M22/M25 A2984 RMK SLP177
19:00
M
-22 °C 9 mi 1.900 ft 280° 280° 2 kt METAR CZVL 020200Z AUTO 28002KT 9SM OVC019 M22/M25 A2984 RMK SLP176
18:00
M
-22 °C 9 mi 1.900 ft 250° 250° 2 kt METAR CZVL 020100Z AUTO 25002KT 9SM OVC019 M22/M25 A2982 RMK SLP173
17:00
M
-22 °C 9 mi 1.900 ft 270° 270° 3 kt METAR CZVL 020000Z AUTO 27003KT 9SM OVC019 M22/M25 A2981 RMK SLP169
16:00
M
-22 °C 9 mi 2.100 ft 270° 270° 3 kt METAR CZVL 012300Z AUTO 27003KT 9SM OVC021 M22/M25 A2980 RMK SLP165
15:00
M
-22 °C 9 mi 2.100 ft 300° 300° 3 kt METAR CZVL 012200Z AUTO 30003KT 9SM OVC021 M22/M25 A2979 RMK SLP161
14:00
M
-23 °C 9 mi 2.300 ft 290° 290° 4 kt METAR CZVL 012100Z AUTO 29004KT 9SM OVC023 M23/M25 A2979 RMK SLP159
13:35
M
-23 °C 9 mi 2.300 ft 300° 300° 4 kt METAR CZVL 012035Z AUTO 30004KT 9SM BKN023 M23/M25 A2979 RMK SLP160
13:11
V
-23 °C 9 mi - 300° 300° 5 kt METAR CZVL 012011Z AUTO 30005KT 9SM SCT023 M23/M26 A2979 RMK SLP163
13:00
M
-23 °C 9 mi 2.300 ft 310° 310° 5 kt METAR CZVL 012000Z AUTO 31005KT 9SM BKN023 M23/M25 A2980 RMK SLP163
12:00
V
-24 °C 9 mi - 300° 300° 4 kt METAR CZVL 011900Z AUTO 30004KT 9SM CLR M24/M26 A2981 RMK SLP167
11:10
V
-25 °C 9 mi - 300° 300° 6 kt METAR CZVL 011810Z AUTO 30006KT 9SM SCT017 M25/M27 A2982 RMK SLP174
11:00
M
-25 °C 9 mi 1.700 ft 290° 290° 5 kt METAR CZVL 011800Z AUTO 29005KT 9SM BKN017 M25/M27 A2982 RMK SLP170
10:16
M
-25 °C 9 mi 1.300 ft 290° 290° 6 kt METAR CZVL 011716Z AUTO 29006KT 9SM OVC013 M25/M27 A2982 RMK SLP174
10:00
M
-25 °C 9 mi 1.300 ft 300° 300° 6 kt METAR CZVL 011700Z AUTO 30006KT 9SM -SN OVC013 M25/M27 A2982 RMK SLP170
09:51
M
-25 °C 6 mi 1.300 ft 300° 300° 6 kt METAR CZVL 011651Z AUTO 30006KT 6SM -SN OVC013 M25/M27 A2982 RMK SLP174
09:39
M
-25 °C 4 mi 1.300 ft 290° 290° 6 kt METAR CZVL 011639Z AUTO 29006KT 4SM -SN OVC013 M25/M27 A2982 RMK SLP173
09:37
M
-25 °C 4 mi 1.300 ft 300° 300° 7 kt SPECI CZVL 011637Z AUTO 30007KT 4SM BR OVC013 M25/M27 A2981 RMK SLP172
09:34
M
-24 °C 6 mi 1.300 ft 300° 300° 7 kt METAR CZVL 011634Z AUTO 30007KT 6SM HZ OVC013 M24/M27 A2981 RMK SLP172
09:21
M
-24 °C 9 mi 1.300 ft 300° 300° 7 kt METAR CZVL 011621Z AUTO 30007KT 9SM OVC013 M24/M27 A2981 RMK SLP170
09:05
M
-24 °C 9 mi 1.300 ft 300° 300° 6 kt METAR CZVL 011605Z AUTO 30006KT 9SM -SN OVC013 M24/M27 A2980 RMK SLP168
08:00
M
-24 °C 9 mi 1.500 ft 300° 300° 5 kt METAR CZVL 011500Z AUTO 30005KT 9SM -SN OVC015 M24/M26 A2980 RMK SLP164
07:00
M
-24 °C 9 mi 1.500 ft 300° 300° 6 kt METAR CZVL 011400Z AUTO 30006KT 9SM -SN OVC015 M24/M26 A2982 RMK SLP169
06:19
M
-24 °C 9 mi 1.700 ft 290° 290° 6 kt METAR CZVL 011319Z AUTO 29006KT 9SM -SN OVC017 M24/M26 A2982 RMK SLP172
06:01
M
-24 °C 9 mi 1.700 ft 290° 290° 5 kt SPECI CZVL 011301Z AUTO 29005KT 9SM OVC017 M24/M27 A2981 RMK SLP172
06:00
M
-24 °C 9 mi 1.700 ft 300° 300° 5 kt METAR CZVL 011300Z AUTO 30005KT 9SM -SN OVC017 M24/M27 A2981 RMK SLP167
05:00
M
-24 °C 9 mi 1.700 ft 300° 300° 6 kt METAR CZVL 011200Z AUTO 30006KT 9SM -SN OVC017 M24/M26 A2981 RMK SLP166
04:00
M
-24 °C 9 mi 1.700 ft 300° 300° 7 kt METAR CZVL 011100Z AUTO 30007KT 9SM -SN OVC017 M24/M27 A2981 RMK SLP167
03:12
M
-25 °C 9 mi 1.700 ft 290° 290° 8 kt METAR CZVL 011012Z AUTO 29008KT 9SM -SN BKN017 M25/M27 A2983 RMK SLP179
03:00
V
-25 °C 9 mi - 290° 290° 7 kt METAR CZVL 011000Z AUTO 29007KT 9SM -SN CLR M25/M27 A2983 RMK SLP174

Wij en derden volgen je internetgedrag op onze website met cookies. Als je doorgaat, gaan we ervan uit dat je akkoord gaat met onze cookiebeleid.